Terminal Aerodrome Forecast
Issued by NWS

Current Version | Previous Version | Text Only | Print | Product List | Glossary Off
Versions: 1 2 3 4 5 6 7 8 9 10 11 12 13 14 15 16 17 18 19 20 21 22 23 24 25 26 27 28 29

000
FTUS41 KPBZ 042300
TAFHLG
TAF
KHLG 042324Z 0500/0524 28008KT 2SM -SN SCT006 OVC025
      TEMPO 0500/0502 1SM -SN OVC006
     FM050800 31010KT P6SM OVC015
     FM051700 34008KT P6SM BKN025
     FM052300 32005KT P6SM SKC=

USA.gov is the U.S. government's official web portal to all federal, state and local government web resources and services.